createdAt,value
2019-03-08T00:00:26.943Z,99.90
2019-03-08T00:02:55.332Z,99.90
2019-03-08T00:05:23.790Z,99.90
2019-03-08T00:07:52.191Z,99.90
2019-03-08T00:10:20.585Z,99.90
2019-03-08T00:12:49.049Z,99.90
2019-03-08T00:15:17.565Z,99.90
2019-03-08T00:17:45.970Z,99.90
2019-03-08T00:20:15.021Z,99.90
2019-03-08T00:22:43.417Z,99.90
2019-03-08T00:25:14.150Z,99.90
2019-03-08T00:27:42.589Z,99.90
2019-03-08T00:30:14.291Z,99.90
2019-03-08T00:32:42.948Z,99.90
2019-03-08T00:35:11.872Z,99.90
2019-03-08T00:37:40.273Z,99.90
2019-03-08T00:40:11.785Z,99.90
2019-03-08T00:42:40.182Z,99.90
2019-03-08T00:45:16.779Z,99.90
2019-03-08T00:47:45.176Z,99.90
2019-03-08T00:50:13.624Z,99.90
2019-03-08T00:52:42.029Z,99.90
2019-03-08T00:55:12.913Z,99.90
2019-03-08T00:57:41.368Z,99.90
2019-03-08T01:00:20.375Z,99.90
2019-03-08T01:02:48.840Z,99.90
2019-03-08T01:05:18.356Z,99.90
2019-03-08T01:07:46.960Z,99.90
2019-03-08T01:10:18.794Z,99.90
2019-03-08T01:12:47.445Z,99.90
2019-03-08T01:15:18.471Z,99.90
2019-03-08T01:17:47.105Z,99.90
2019-03-08T01:20:20.788Z,99.90
2019-03-08T01:22:49.167Z,99.90
2019-03-08T01:25:18.742Z,99.90
2019-03-08T01:28:02.389Z,99.90
2019-03-08T01:30:33.040Z,99.90
2019-03-08T01:33:01.436Z,99.90
2019-03-08T01:35:29.809Z,99.90
2019-03-08T01:37:58.209Z,99.90
2019-03-08T01:40:27.593Z,99.90
2019-03-08T01:42:56.750Z,99.90
2019-03-08T01:45:25.147Z,99.90
2019-03-08T01:47:53.544Z,99.90
2019-03-08T01:50:21.930Z,99.90
2019-03-08T01:52:50.312Z,99.90
2019-03-08T01:55:18.773Z,99.90
2019-03-08T01:57:47.178Z,99.90
2019-03-08T02:00:19.000Z,99.90
2019-03-08T02:02:48.357Z,99.90
2019-03-08T02:05:17.549Z,99.90
2019-03-08T02:07:45.948Z,99.90
2019-03-08T02:10:16.965Z,99.90
2019-03-08T02:12:45.362Z,99.90
2019-03-08T02:15:15.989Z,99.90
2019-03-08T02:17:44.474Z,99.90
2019-03-08T02:20:19.048Z,99.90
2019-03-08T02:22:47.436Z,99.90
2019-03-08T02:25:15.830Z,99.90
2019-03-08T02:27:44.979Z,99.90
2019-03-08T02:30:17.009Z,99.90
2019-03-08T02:32:46.172Z,99.90
2019-03-08T02:35:17.644Z,99.90
2019-03-08T02:37:46.101Z,99.90
2019-03-08T02:40:26.117Z,99.90
2019-03-08T02:42:54.523Z,99.90
2019-03-08T02:45:22.980Z,99.90
2019-03-08T02:47:51.385Z,99.90
2019-03-08T02:50:19.774Z,99.90
2019-03-08T02:52:48.237Z,99.90
2019-03-08T02:55:16.645Z,99.90
2019-03-08T02:57:45.076Z,99.90
2019-03-08T03:00:15.708Z,99.90
2019-03-08T03:02:44.167Z,99.90
2019-03-08T03:05:12.696Z,99.90
2019-03-08T03:07:41.080Z,99.90
2019-03-08T03:10:12.244Z,99.90
2019-03-08T03:12:40.868Z,99.90
2019-03-08T03:15:14.492Z,99.90
2019-03-08T03:17:42.915Z,99.90
2019-03-08T03:20:14.329Z,99.90
2019-03-08T03:22:42.718Z,99.90
2019-03-08T03:25:16.489Z,99.90
2019-03-08T03:27:44.891Z,99.90
2019-03-08T03:30:16.597Z,99.90
2019-03-08T03:32:44.981Z,99.90
2019-03-08T03:35:13.390Z,99.90
2019-03-08T03:37:41.801Z,99.90
2019-03-08T03:40:13.484Z,99.90
2019-03-08T03:42:41.870Z,99.90
2019-03-08T03:45:16.057Z,99.90
2019-03-08T03:48:03.797Z,99.90
2019-03-08T03:50:32.196Z,99.90
2019-03-08T03:53:00.822Z,99.90
2019-03-08T03:55:29.221Z,99.90
2019-03-08T03:57:57.608Z,99.90
2019-03-08T04:00:26.001Z,99.90
2019-03-08T04:02:55.269Z,99.90
2019-03-08T04:05:23.669Z,99.90
2019-03-08T04:07:52.068Z,99.90
2019-03-08T04:10:20.517Z,99.90
2019-03-08T04:12:48.944Z,99.90
2019-03-08T04:15:22.088Z,99.90
2019-03-08T04:17:50.708Z,99.90
2019-03-08T04:20:19.956Z,99.90
2019-03-08T04:22:48.339Z,99.90
2019-03-08T04:25:16.866Z,99.90
2019-03-08T04:27:45.251Z,99.90
2019-03-08T04:30:16.945Z,99.90
2019-03-08T04:32:45.392Z,99.90
2019-03-08T04:35:13.865Z,99.90
2019-03-08T04:37:42.297Z,99.90
2019-03-08T04:40:13.255Z,99.90
2019-03-08T04:42:41.724Z,99.90
2019-03-08T04:45:12.585Z,99.90
2019-03-08T04:47:40.986Z,99.90
2019-03-08T04:50:12.220Z,99.90
2019-03-08T04:52:40.616Z,99.90
2019-03-08T04:55:12.073Z,99.90
2019-03-08T04:57:40.460Z,99.90
2019-03-08T05:00:11.921Z,99.90
2019-03-08T05:02:40.309Z,99.90
2019-03-08T05:05:08.717Z,99.90
2019-03-08T05:07:37.188Z,99.90
2019-03-08T05:10:11.210Z,99.90
2019-03-08T05:12:40.369Z,99.90
2019-03-08T05:15:10.367Z,99.90
2019-03-08T05:17:38.764Z,99.90
2019-03-08T05:20:09.993Z,99.90
2019-03-08T05:22:38.449Z,99.90
2019-03-08T05:25:09.689Z,99.90
2019-03-08T05:27:38.081Z,99.90
2019-03-08T05:30:14.625Z,99.90
2019-03-08T05:32:43.038Z,99.90
2019-03-08T05:35:13.858Z,99.90
2019-03-08T05:37:51.343Z,99.90
2019-03-08T05:40:19.722Z,99.90
2019-03-08T05:42:48.104Z,99.90
2019-03-08T05:45:16.625Z,99.90
2019-03-08T05:47:45.046Z,99.90
2019-03-08T05:50:13.519Z,99.90
2019-03-08T05:52:42.688Z,99.90
2019-03-08T05:55:18.986Z,99.90
2019-03-08T05:57:47.381Z,99.90
2019-03-08T06:00:31.280Z,99.90
2019-03-08T06:02:52.420Z,99.90
2019-03-08T06:05:21.606Z,99.90
2019-03-08T06:07:50.001Z,99.90
2019-03-08T06:10:29.969Z,99.90
2019-03-08T06:12:59.449Z,99.90
2019-03-08T06:15:28.006Z,99.90
2019-03-08T06:17:57.197Z,99.90
2019-03-08T06:20:25.837Z,99.90
2019-03-08T06:22:54.230Z,99.90
2019-03-08T06:25:22.712Z,99.90
2019-03-08T06:27:51.101Z,99.90
2019-03-08T06:30:19.565Z,99.90
2019-03-08T06:32:47.972Z,99.90
2019-03-08T06:35:16.535Z,99.90
2019-03-08T06:37:44.997Z,99.90
2019-03-08T06:40:14.725Z,99.90
2019-03-08T06:42:43.119Z,99.90
2019-03-08T06:45:16.610Z,99.90
2019-03-08T06:47:45.144Z,99.90
2019-03-08T06:50:16.545Z,99.90
2019-03-08T06:52:45.008Z,99.90
2019-03-08T06:55:18.092Z,99.90
2019-03-08T06:57:46.477Z,99.90
2019-03-08T07:00:33.593Z,99.90
2019-03-08T07:03:02.360Z,99.90
2019-03-08T07:05:30.758Z,99.90
2019-03-08T07:07:59.165Z,99.90
2019-03-08T07:10:27.581Z,99.90
2019-03-08T07:13:02.847Z,99.90
2019-03-08T07:15:26.097Z,99.90
2019-03-08T07:17:54.497Z,99.90
2019-03-08T07:20:24.547Z,99.90
2019-03-08T07:23:11.209Z,99.90
2019-03-08T07:25:58.453Z,99.90
2019-03-08T07:28:44.948Z,99.90
2019-03-08T07:31:30.145Z,99.90
2019-03-08T07:34:16.711Z,99.90
2019-03-08T07:37:04.959Z,99.90
2019-03-08T07:39:35.036Z,99.90
2019-03-08T07:42:21.827Z,99.90
2019-03-08T07:45:00.985Z,99.90
2019-03-08T07:47:40.281Z,99.90
2019-03-08T07:50:13.519Z,99.90
2019-03-08T07:52:52.741Z,99.90
2019-03-08T07:55:22.863Z,99.90
2019-03-08T07:57:58.681Z,99.90
2019-03-08T08:00:28.729Z,99.90
2019-03-08T08:03:03.647Z,99.90
2019-03-08T08:05:42.323Z,99.90
2019-03-08T08:08:15.101Z,99.90
2019-03-08T08:10:57.573Z,99.90
2019-03-08T08:13:36.489Z,99.90
2019-03-08T08:16:15.316Z,99.90
2019-03-08T08:18:45.365Z,99.90
2019-03-08T08:21:24.441Z,99.90
2019-03-08T08:23:57.217Z,99.90
2019-03-08T08:26:27.261Z,99.90
2019-03-08T08:29:00.196Z,99.90
2019-03-08T08:31:32.958Z,99.90
2019-03-08T08:34:05.957Z,99.90
2019-03-08T08:36:35.993Z,99.90
2019-03-08T08:39:25.339Z,99.90
2019-03-08T08:42:01.131Z,99.90
2019-03-08T08:44:31.168Z,99.90
2019-03-08T08:47:13.009Z,99.90
2019-03-08T08:49:56.036Z,99.90
2019-03-08T08:52:43.777Z,99.90
2019-03-08T08:55:16.861Z,99.90
2019-03-08T08:57:46.888Z,99.90
2019-03-08T09:00:31.004Z,99.90
2019-03-08T09:03:13.005Z,99.90
2019-03-08T09:05:43.082Z,99.90
2019-03-08T09:08:28.196Z,99.90
2019-03-08T09:10:58.309Z,99.90
2019-03-08T09:13:31.397Z,99.90
2019-03-08T09:16:07.185Z,99.90
2019-03-08T09:18:45.931Z,99.90
2019-03-08T09:21:31.036Z,99.90
2019-03-08T09:24:12.836Z,99.90
2019-03-08T09:26:43.551Z,99.90
2019-03-08T09:29:29.867Z,99.90
2019-03-08T09:32:02.820Z,99.90
2019-03-08T09:34:41.655Z,99.90
2019-03-08T09:37:14.181Z,99.90
2019-03-08T09:39:49.948Z,99.90
2019-03-08T09:42:38.051Z,99.90
2019-03-08T09:45:27.130Z,99.90
2019-03-08T09:48:06.167Z,99.90
2019-03-08T09:53:30.584Z,99.90
2019-03-08T09:56:09.490Z,99.90
2019-03-08T09:58:45.232Z,99.90
2019-03-08T10:01:18.360Z,99.90
2019-03-08T10:04:03.145Z,99.90
2019-03-08T10:06:35.985Z,99.90
2019-03-08T10:09:25.212Z,99.90
2019-03-08T10:12:10.725Z,99.90
2019-03-08T10:14:41.550Z,99.90
2019-03-08T10:17:14.265Z,99.90
2019-03-08T10:19:47.013Z,99.90
2019-03-08T10:22:17.133Z,99.90
2019-03-08T10:24:59.141Z,99.90
2019-03-08T10:27:37.821Z,99.90
2019-03-08T10:30:07.181Z,99.90
2019-03-08T10:32:52.293Z,99.10
2019-03-08T10:35:28.093Z,99.90
2019-03-08T10:37:58.152Z,99.40
2019-03-08T10:40:28.261Z,99.00
2019-03-08T10:42:58.931Z,98.00
2019-03-08T10:45:45.272Z,96.90
2019-03-08T10:48:15.316Z,93.70
2019-03-08T10:50:48.107Z,93.10
2019-03-08T10:53:24.189Z,92.00
2019-03-08T10:56:09.532Z,91.40
2019-03-08T10:58:57.709Z,90.00
2019-03-08T11:01:33.576Z,90.20
2019-03-08T11:04:03.681Z,85.20
2019-03-08T11:06:33.710Z,84.70
2019-03-08T11:09:06.727Z,89.30
2019-03-08T11:11:53.013Z,91.40
2019-03-08T11:14:29.105Z,93.80
2019-03-08T11:17:01.670Z,91.80
2019-03-08T11:19:34.814Z,90.50
2019-03-08T11:22:20.737Z,86.60
2019-03-08T11:24:56.516Z,90.00
2019-03-08T11:27:29.236Z,91.70
2019-03-08T11:30:05.231Z,91.00
2019-03-08T11:32:47.541Z,83.20
2019-03-08T11:35:26.117Z,77.80
2019-03-08T11:37:56.217Z,80.00
2019-03-08T11:40:41.365Z,80.80
2019-03-08T11:43:14.372Z,83.60
2019-03-08T11:45:52.953Z,88.10
2019-03-08T11:48:29.621Z,87.20
2019-03-08T11:50:59.745Z,90.40
2019-03-08T11:53:35.770Z,93.30
2019-03-08T11:56:22.496Z,90.90
2019-03-08T11:59:01.648Z,85.80
2019-03-08T12:01:34.642Z,86.10
2019-03-08T12:04:10.705Z,90.50
2019-03-08T12:06:40.756Z,91.30
2019-03-08T12:09:16.589Z,93.10
2019-03-08T12:11:52.623Z,93.00
2019-03-08T12:14:25.361Z,94.10
2019-03-08T12:16:58.905Z,91.30
2019-03-08T12:19:34.765Z,86.10
2019-03-08T12:22:07.868Z,90.20
2019-03-08T12:24:40.329Z,93.00
2019-03-08T12:30:23.318Z,84.30
2019-03-08T12:32:53.535Z,75.50
2019-03-08T12:35:32.140Z,71.10
2019-03-08T12:38:18.618Z,70.40
2019-03-08T12:40:57.521Z,80.00
2019-03-08T12:43:30.049Z,86.40
2019-03-08T12:46:00.080Z,87.40
2019-03-08T12:48:42.191Z,91.40
2019-03-08T12:51:24.228Z,91.10
2019-03-08T12:56:50.450Z,91.70
2019-03-08T12:59:26.297Z,93.20
2019-03-08T13:01:59.322Z,96.80
2019-03-08T13:04:32.306Z,97.10
2019-03-08T13:07:05.957Z,97.30
2019-03-08T13:09:49.603Z,98.00
2019-03-08T13:12:18.071Z,96.90
2019-03-08T13:14:46.457Z,95.60
2019-03-08T13:17:14.849Z,93.90
2019-03-08T13:19:43.309Z,91.00
2019-03-08T13:22:11.957Z,87.20
2019-03-08T13:24:40.500Z,90.30
2019-03-08T13:27:08.897Z,90.60
2019-03-08T13:29:37.289Z,90.60
2019-03-08T13:32:05.692Z,92.90
2019-03-08T13:34:34.088Z,92.80
2019-03-08T13:37:02.505Z,94.90
2019-03-08T13:39:30.874Z,91.60
2019-03-08T13:41:59.270Z,90.70
2019-03-08T13:44:27.737Z,82.60
2019-03-08T13:46:56.139Z,88.20
2019-03-08T13:49:24.528Z,89.80
2019-03-08T13:51:52.920Z,88.20
2019-03-08T13:54:21.316Z,92.10
2019-03-08T13:56:49.733Z,93.20
2019-03-08T13:59:18.131Z,93.30
2019-03-08T14:01:47.396Z,92.70
2019-03-08T14:04:15.790Z,93.10
2019-03-08T14:06:44.180Z,91.80
2019-03-08T14:09:12.757Z,91.80
2019-03-08T14:11:41.147Z,90.80
2019-03-08T14:14:09.559Z,90.60
2019-03-08T14:16:37.951Z,86.60
2019-03-08T14:19:06.353Z,77.30
2019-03-08T14:21:34.765Z,73.20
2019-03-08T14:24:03.244Z,72.60
2019-03-08T14:26:31.712Z,73.40
2019-03-08T14:29:00.365Z,71.70
2019-03-08T14:31:30.417Z,68.10
2019-03-08T14:33:58.817Z,68.50
2019-03-08T14:36:27.233Z,65.50
2019-03-08T14:38:55.633Z,64.30
2019-03-08T14:41:25.668Z,66.70
2019-03-08T14:43:55.710Z,65.40
2019-03-08T14:46:38.344Z,67.50
2019-03-08T14:49:07.757Z,69.30
2019-03-08T14:51:36.650Z,68.40
2019-03-08T14:54:06.006Z,68.00
2019-03-08T14:56:35.793Z,67.70
2019-03-08T14:59:05.351Z,70.60
2019-03-08T15:01:33.771Z,73.00
2019-03-08T15:04:02.212Z,76.10
2019-03-08T15:06:30.601Z,73.70
2019-03-08T15:08:58.992Z,71.00
2019-03-08T15:11:28.179Z,72.40
2019-03-08T15:13:58.002Z,74.70
2019-03-08T15:16:26.766Z,76.00
2019-03-08T15:18:55.165Z,76.10
2019-03-08T15:21:23.625Z,80.10
2019-03-08T15:23:54.489Z,80.10
2019-03-08T15:26:22.193Z,81.20
2019-03-08T15:28:50.585Z,81.50
2019-03-08T15:31:18.973Z,81.30
2019-03-08T15:33:47.377Z,83.40
2019-03-08T15:36:15.836Z,85.60
2019-03-08T15:38:44.234Z,87.20
2019-03-08T15:41:12.633Z,88.50
2019-03-08T15:43:41.030Z,89.40
2019-03-08T15:46:09.425Z,91.10
2019-03-08T15:48:37.852Z,91.40
2019-03-08T15:51:06.389Z,93.80
2019-03-08T15:53:34.765Z,95.20
2019-03-08T15:56:04.041Z,95.20
2019-03-08T15:58:32.445Z,96.30
2019-03-08T16:01:00.915Z,96.80
2019-03-08T16:03:30.002Z,96.50
2019-03-08T16:06:03.067Z,97.20
2019-03-08T16:08:29.868Z,98.30
2019-03-08T16:10:58.280Z,99.50
2019-03-08T16:13:26.663Z,99.00
2019-03-08T16:15:55.218Z,99.40
2019-03-08T16:18:24.554Z,99.60
2019-03-08T16:20:52.949Z,99.90
2019-03-08T16:23:21.415Z,99.90
2019-03-08T16:25:49.838Z,99.90
2019-03-08T16:28:18.204Z,99.90
2019-03-08T16:30:48.946Z,99.90
2019-03-08T16:33:39.322Z,99.90
2019-03-08T16:36:12.342Z,99.90
2019-03-08T16:38:48.164Z,99.90
2019-03-08T16:41:29.640Z,99.90
2019-03-08T16:44:02.466Z,99.90
2019-03-08T16:46:32.493Z,99.90
2019-03-08T16:49:14.862Z,99.90
2019-03-08T16:51:42.865Z,99.90
2019-03-08T16:54:15.138Z,99.90
2019-03-08T16:57:01.540Z,99.90
2019-03-08T16:59:37.590Z,99.90
2019-03-08T17:02:19.804Z,99.90
2019-03-08T17:04:50.838Z,99.90
2019-03-08T17:07:20.878Z,99.90
2019-03-08T17:09:50.912Z,99.90
2019-03-08T17:12:23.906Z,99.90
2019-03-08T17:14:53.933Z,99.90
2019-03-08T17:17:35.743Z,99.90
2019-03-08T17:20:08.708Z,99.90
2019-03-08T17:22:41.666Z,99.90
2019-03-08T17:25:29.057Z,99.90
2019-03-08T17:28:11.121Z,99.90
2019-03-08T17:30:41.169Z,99.90
2019-03-08T17:33:11.201Z,99.90
2019-03-08T17:35:43.940Z,99.90
2019-03-08T17:38:26.116Z,99.90
2019-03-08T17:40:58.863Z,99.90
2019-03-08T17:43:28.971Z,99.90
2019-03-08T17:46:05.443Z,99.90
2019-03-08T17:48:51.068Z,99.90
2019-03-08T17:51:21.097Z,99.90
2019-03-08T17:53:57.126Z,99.90
2019-03-08T17:56:36.270Z,99.90
2019-03-08T17:59:08.973Z,99.90
2019-03-08T18:01:48.078Z,99.90
2019-03-08T18:04:21.073Z,99.90
2019-03-08T18:06:56.998Z,99.90
2019-03-08T18:09:27.066Z,99.90
2019-03-08T18:11:57.099Z,99.90
2019-03-08T18:14:29.808Z,99.90
2019-03-08T18:17:16.471Z,99.90
2019-03-08T18:19:49.161Z,99.90
2019-03-08T18:22:19.191Z,99.90
2019-03-08T18:24:55.056Z,99.90
2019-03-08T18:27:43.701Z,99.90
2019-03-08T18:30:23.645Z,99.90
2019-03-08T18:32:53.684Z,99.90
2019-03-08T18:35:24.497Z,99.90
2019-03-08T18:38:10.733Z,99.90
2019-03-08T18:40:40.764Z,99.90
2019-03-08T18:43:13.845Z,99.90
2019-03-08T18:45:56.154Z,99.90
2019-03-08T18:48:32.134Z,99.90
2019-03-08T18:51:17.547Z,99.90
2019-03-08T18:54:03.811Z,99.90
2019-03-08T18:56:50.513Z,99.90
2019-03-08T18:59:38.904Z,99.90
2019-03-08T19:02:08.981Z,99.90
2019-03-08T19:04:48.244Z,99.90
2019-03-08T19:07:33.370Z,99.90
2019-03-08T19:10:21.704Z,99.90
2019-03-08T19:12:57.747Z,99.90
2019-03-08T19:15:37.053Z,99.90
2019-03-08T19:18:13.044Z,99.90
2019-03-08T19:20:59.129Z,99.90
2019-03-08T19:23:35.198Z,99.90
2019-03-08T19:26:11.247Z,99.90
2019-03-08T19:28:50.149Z,99.90
2019-03-08T19:31:28.802Z,99.90
2019-03-08T19:34:14.965Z,99.90
2019-03-08T19:37:01.470Z,99.90
2019-03-08T19:39:34.359Z,99.90
2019-03-08T19:42:10.038Z,99.90
2019-03-08T19:44:40.124Z,99.90
2019-03-08T19:47:10.155Z,99.90
2019-03-08T19:49:49.211Z,99.90
2019-03-08T19:52:20.017Z,99.90
2019-03-08T19:54:50.053Z,99.90
2019-03-08T19:57:35.166Z,99.90
2019-03-08T20:00:23.013Z,99.90
2019-03-08T20:03:05.270Z,99.90
2019-03-08T20:05:35.316Z,99.90
2019-03-08T20:08:08.125Z,99.90
2019-03-08T20:10:54.386Z,99.90
2019-03-08T20:13:36.458Z,99.90
2019-03-08T20:16:22.281Z,99.90
2019-03-08T20:19:08.986Z,99.90
2019-03-08T20:21:39.032Z,99.90
2019-03-08T20:24:09.121Z,99.90
2019-03-08T20:26:39.152Z,99.90
2019-03-08T20:29:09.172Z,99.90
2019-03-08T20:31:39.214Z,99.90
2019-03-08T20:34:13.400Z,99.90
2019-03-08T20:36:59.841Z,99.90
2019-03-08T20:39:29.893Z,99.90
2019-03-08T20:42:02.423Z,99.90
2019-03-08T20:44:41.388Z,99.90
2019-03-08T20:47:11.434Z,99.90
2019-03-08T20:49:39.822Z,99.90
2019-03-08T20:52:08.225Z,99.90
2019-03-08T20:54:37.302Z,99.90
2019-03-08T20:57:05.719Z,99.90
2019-03-08T20:59:34.109Z,99.90
2019-03-08T21:02:02.505Z,99.90
2019-03-08T21:04:30.989Z,99.90
2019-03-08T21:06:59.392Z,99.90
2019-03-08T21:09:27.802Z,99.90
2019-03-08T21:11:56.188Z,99.90
2019-03-08T21:14:24.587Z,99.90
2019-03-08T21:16:52.982Z,99.90
2019-03-08T21:19:21.372Z,99.90
2019-03-08T21:21:50.042Z,99.90
2019-03-08T21:24:18.429Z,99.90
2019-03-08T21:26:47.018Z,99.90
2019-03-08T21:29:15.414Z,99.90
2019-03-08T21:31:43.819Z,99.90
2019-03-08T21:34:12.329Z,99.90
2019-03-08T21:36:40.709Z,99.90
2019-03-08T21:39:09.178Z,99.90
2019-03-08T21:41:37.567Z,99.90
2019-03-08T21:44:05.969Z,99.90
2019-03-08T21:46:34.357Z,99.90
2019-03-08T21:49:03.616Z,99.90
2019-03-08T21:51:32.039Z,99.90
2019-03-08T21:54:00.421Z,99.90
2019-03-08T21:56:28.828Z,99.90
2019-03-08T21:58:57.234Z,99.90
2019-03-08T22:01:25.630Z,99.90
2019-03-08T22:03:55.660Z,99.90
2019-03-08T22:06:24.061Z,99.90
2019-03-08T22:08:54.324Z,99.90
2019-03-08T22:11:24.513Z,99.90
2019-03-08T22:13:53.163Z,99.90
2019-03-08T22:16:21.866Z,99.90
2019-03-08T22:18:50.875Z,99.90
2019-03-08T22:21:19.558Z,99.90
2019-03-08T22:23:48.514Z,99.90
2019-03-08T22:26:16.968Z,99.90
2019-03-08T22:28:45.678Z,99.90
2019-03-08T22:31:14.127Z,99.90
2019-03-08T22:33:42.540Z,99.90
2019-03-08T22:36:10.942Z,99.90
2019-03-08T22:38:39.339Z,99.90
2019-03-08T22:41:07.721Z,99.90
2019-03-08T22:43:36.119Z,99.90
2019-03-08T22:46:04.514Z,99.90
2019-03-08T22:48:32.913Z,99.90
2019-03-08T22:51:01.300Z,99.90
2019-03-08T22:53:29.693Z,99.90
2019-03-08T22:55:58.100Z,99.90
2019-03-08T22:58:26.489Z,99.90
2019-03-08T23:01:01.126Z,99.90
2019-03-08T23:03:30.850Z,99.90
2019-03-08T23:05:59.391Z,99.90
2019-03-08T23:08:28.708Z,99.90
2019-03-08T23:10:57.102Z,99.90
2019-03-08T23:13:25.511Z,99.90
2019-03-08T23:15:53.908Z,99.90
2019-03-08T23:18:22.287Z,99.90
2019-03-08T23:20:50.702Z,99.90
2019-03-08T23:23:19.089Z,99.90
2019-03-08T23:25:47.481Z,99.90
2019-03-08T23:28:17.552Z,99.90
2019-03-08T23:30:47.612Z,99.90
2019-03-08T23:33:16.021Z,99.90
2019-03-08T23:35:44.409Z,99.90
2019-03-08T23:38:12.805Z,99.90
2019-03-08T23:40:41.191Z,99.90
2019-03-08T23:43:09.576Z,99.90
2019-03-08T23:45:37.985Z,99.90
2019-03-08T23:48:06.446Z,99.90
2019-03-08T23:50:34.828Z,99.90
2019-03-08T23:53:03.220Z,99.90
2019-03-08T23:55:31.606Z,99.90
2019-03-08T23:57:59.997Z,99.90
